<?xml version="1.0" encoding="UTF-8" standalone="no" ?>
<gpx xmlns="http://www.topografix.com/GPX/1/1" xmlns:xsi="http://www.w3.org/2001/XMLSchema-instance" xsi:schemaLocation="http://www.topografix.com/GPX/1/1 http://www.topografix.com/GPX/1/1/gpx.xsd" version="1.1" creator="VisuGPX - https://www.visugpx.com">
  <metadata>
    <name>Ecrins 2021</name>
  </metadata>
  <wpt lat="44.8396" lon="6.47901">
    <ele>1191.4</ele>
    <name><![CDATA[Vallouise]]></name>
  </wpt>
  <wpt lat="44.83903" lon="6.47524">
    <ele>1196.1</ele>
    <name><![CDATA[Pont des Fontaines]]></name>
  </wpt>
  <wpt lat="44.83931" lon="6.45488">
    <ele>1245.7</ele>
    <name><![CDATA[Pont des Places]]></name>
  </wpt>
  <wpt lat="44.83632" lon="6.44255">
    <ele>1309.8</ele>
    <name><![CDATA[Eboulement]]></name>
  </wpt>
  <wpt lat="44.83869" lon="6.44564">
    <ele>1289.8</ele>
    <name><![CDATA[Les Grésourières]]></name>
  </wpt>
  <wpt lat="44.83597" lon="6.43037">
    <ele>1466.9</ele>
    <name><![CDATA[Béassac]]></name>
  </wpt>
  <wpt lat="44.83117" lon="6.40174">
    <ele>1622.1</ele>
    <name><![CDATA[Entre les Aygues]]></name>
  </wpt>
  <wpt lat="44.83049" lon="6.40124">
    <ele>1609.1</ele>
    <name><![CDATA[Passerelle sur le torrent des Bans]]></name>
  </wpt>
  <wpt lat="44.81358" lon="6.38864">
    <ele>1836.5</ele>
    <name><![CDATA[Panneau d'entrée dans le parc des Ecrins]]></name>
  </wpt>
  <wpt lat="44.80661" lon="6.37616">
    <ele>1939.8</ele>
    <name><![CDATA[Passerelle sur le ruisseau du Ravin du Blanc]]></name>
  </wpt>
  <wpt lat="44.8009" lon="6.36589">
    <ele>2016.2</ele>
    <name><![CDATA[Passerelle sur le ruisseau de Chanteloube]]></name>
  </wpt>
  <wpt lat="44.79287" lon="6.36504">
    <ele>2131</ele>
    <name><![CDATA[1er ressaut]]></name>
  </wpt>
  <wpt lat="44.79042" lon="6.36483">
    <ele>2165</ele>
    <name><![CDATA[2ème ressaut]]></name>
  </wpt>
  <wpt lat="44.78733" lon="6.36223">
    <ele>2279.1</ele>
    <name><![CDATA[Champ Rond]]></name>
  </wpt>
  <wpt lat="44.78227" lon="6.35819">
    <ele>2498.2</ele>
    <name><![CDATA[Torrent de la Saume]]></name>
  </wpt>
  <wpt lat="44.76133" lon="6.34075">
    <ele>2074.9</ele>
    <name><![CDATA[Cabanes de Rougnoux]]></name>
  </wpt>
  <wpt lat="44.7633" lon="6.33688">
    <ele>1969.9</ele>
    <name><![CDATA[Passerelle sur le torrent de Rougnoux]]></name>
  </wpt>
  <wpt lat="44.7672" lon="6.32888">
    <ele>1831.2</ele>
    <name><![CDATA[Bivouac du refuge du Pré de la Chaumette]]></name>
  </wpt>
  <wpt lat="44.7729" lon="6.31142">
    <ele>2512.9</ele>
    <name><![CDATA[Sous le Puy de la Chaumette]]></name>
  </wpt>
  <wpt lat="44.81151" lon="6.29603">
    <ele>1704.7</ele>
    <name><![CDATA[Passerelle sur le torrent de Vallonpierre]]></name>
  </wpt>
  <wpt lat="44.81485" lon="6.29576">
    <ele>1660.5</ele>
    <name><![CDATA[Torrent de Vallonpierre]]></name>
  </wpt>
  <wpt lat="44.82482" lon="6.29325">
    <ele>1569.6</ele>
    <name><![CDATA[Passerelle sur la Séveraisse]]></name>
  </wpt>
  <wpt lat="44.82779" lon="6.29194">
    <ele>1545.2</ele>
    <name><![CDATA[Passerelle sur le Torrent de Pis Baumette]]></name>
  </wpt>
  <wpt lat="44.83173" lon="6.28114">
    <ele>1439</ele>
    <name><![CDATA[Passerelle sur le Torrent du Gioberney]]></name>
  </wpt>
  <wpt lat="44.8266" lon="6.26079">
    <ele>1402.8</ele>
    <name><![CDATA[Rif du Sap]]></name>
  </wpt>
  <wpt lat="44.82438" lon="6.23313">
    <ele>1174.1</ele>
    <name><![CDATA[Pont du Hameau du Bourg]]></name>
  </wpt>
  <wpt lat="44.81982" lon="6.21913">
    <ele>1151.2</ele>
    <name><![CDATA[Passerelle du Casset]]></name>
  </wpt>
  <trk>
    <name><![CDATA[E10 Valsenestre - Refuge de la Muzelle]]></name>
    <trkseg>
      <trkpt lat="44.90951" lon="6.05409">
        <ele>1297</ele>
        <time>2020-10-27T09:18:56+01:00</time>
      </trkpt>
      <trkpt lat="44.90927" lon="6.05401">
        <ele>1293</ele>
        <time>2020-10-27T09:19:01+01:00</time>
      </trkpt>
      <trkpt lat="44.90858" lon="6.05441">
        <ele>1291</ele>
        <time>2020-10-27T09:19:06+01:00</time>
      </trkpt>
      <trkpt lat="44.90781" lon="6.05426">
        <ele>1292</ele>
        <time>2020-10-27T09:19:11+01:00</time>
      </trkpt>
      <trkpt lat="44.9077" lon="6.05476">
        <ele>1294</ele>
        <time>2020-10-27T09:19:16+01:00</time>
      </trkpt>
      <trkpt lat="44.90778" lon="6.05574">
        <ele>1301</ele>
        <time>2020-10-27T09:19:21+01:00</time>
      </trkpt>
      <trkpt lat="44.90761" lon="6.0572">
        <ele>1312</ele>
        <time>2020-10-27T09:19:26+01:00</time>
      </trkpt>
      <trkpt lat="44.90756" lon="6.05845">
        <ele>1322</ele>
        <time>2020-10-27T09:19:31+01:00</time>
      </trkpt>
      <trkpt lat="44.90769" lon="6.05909">
        <ele>1327</ele>
        <time>2020-10-27T09:19:36+01:00</time>
      </trkpt>
      <trkpt lat="44.90752" lon="6.06085">
        <ele>1341</ele>
        <time>2020-10-27T09:19:41+01:00</time>
      </trkpt>
      <trkpt lat="44.90731" lon="6.06169">
        <ele>1348</ele>
        <time>2020-10-27T09:19:46+01:00</time>
      </trkpt>
      <trkpt lat="44.90728" lon="6.06312">
        <ele>1360</ele>
        <time>2020-10-27T09:19:51+01:00</time>
      </trkpt>
      <trkpt lat="44.90671" lon="6.06594">
        <ele>1387</ele>
        <time>2020-10-27T09:19:56+01:00</time>
      </trkpt>
      <trkpt lat="44.90641" lon="6.06763">
        <ele>1401</ele>
        <time>2020-10-27T09:20:01+01:00</time>
      </trkpt>
      <trkpt lat="44.90614" lon="6.06855">
        <ele>1410</ele>
        <time>2020-10-27T09:20:06+01:00</time>
      </trkpt>
      <trkpt lat="44.90597" lon="6.06958">
        <ele>1422</ele>
        <time>2020-10-27T09:20:11+01:00</time>
      </trkpt>
      <trkpt lat="44.90598" lon="6.07038">
        <ele>1428</ele>
        <time>2020-10-27T09:20:16+01:00</time>
      </trkpt>
      <trkpt lat="44.90573" lon="6.07167">
        <ele>1441</ele>
        <time>2020-10-27T09:20:21+01:00</time>
      </trkpt>
      <trkpt lat="44.90541" lon="6.0731">
        <ele>1454</ele>
        <time>2020-10-27T09:20:26+01:00</time>
      </trkpt>
      <trkpt lat="44.90576" lon="6.07405">
        <ele>1464</ele>
        <time>2020-10-27T09:20:31+01:00</time>
      </trkpt>
      <trkpt lat="44.90562" lon="6.07465">
        <ele>1470</ele>
        <time>2020-10-27T09:20:36+01:00</time>
      </trkpt>
      <trkpt lat="44.90594" lon="6.07553">
        <ele>1484</ele>
        <time>2020-10-27T09:20:41+01:00</time>
      </trkpt>
      <trkpt lat="44.90577" lon="6.07604">
        <ele>1491</ele>
        <time>2020-10-27T09:20:46+01:00</time>
      </trkpt>
      <trkpt lat="44.90662" lon="6.0769">
        <ele>1504</ele>
        <time>2020-10-27T09:20:51+01:00</time>
      </trkpt>
      <trkpt lat="44.9068" lon="6.07754">
        <ele>1516</ele>
        <time>2020-10-27T09:20:56+01:00</time>
      </trkpt>
      <trkpt lat="44.90723" lon="6.07776">
        <ele>1520</ele>
        <time>2020-10-27T09:21:01+01:00</time>
      </trkpt>
      <trkpt lat="44.90793" lon="6.07823">
        <ele>1533</ele>
        <time>2020-10-27T09:21:06+01:00</time>
      </trkpt>
      <trkpt lat="44.90807" lon="6.0787">
        <ele>1540</ele>
        <time>2020-10-27T09:21:11+01:00</time>
      </trkpt>
      <trkpt lat="44.90794" lon="6.07997">
        <ele>1560</ele>
        <time>2020-10-27T09:21:16+01:00</time>
      </trkpt>
      <trkpt lat="44.90831" lon="6.08001">
        <ele>1563</ele>
        <time>2020-10-27T09:21:21+01:00</time>
      </trkpt>
      <trkpt lat="44.90857" lon="6.08126">
        <ele>1583</ele>
        <time>2020-10-27T09:21:26+01:00</time>
      </trkpt>
      <trkpt lat="44.90802" lon="6.08147">
        <ele>1590</ele>
        <time>2020-10-27T09:21:31+01:00</time>
      </trkpt>
      <trkpt lat="44.90775" lon="6.08151">
        <ele>1592</ele>
        <time>2020-10-27T09:21:36+01:00</time>
      </trkpt>
      <trkpt lat="44.90825" lon="6.08181">
        <ele>1598</ele>
        <time>2020-10-27T09:21:41+01:00</time>
      </trkpt>
      <trkpt lat="44.90877" lon="6.08239">
        <ele>1609</ele>
        <time>2020-10-27T09:21:46+01:00</time>
      </trkpt>
      <trkpt lat="44.90921" lon="6.08312">
        <ele>1621</ele>
        <time>2020-10-27T09:21:51+01:00</time>
      </trkpt>
      <trkpt lat="44.90983" lon="6.084">
        <ele>1634</ele>
        <time>2020-10-27T09:21:56+01:00</time>
      </trkpt>
      <trkpt lat="44.91036" lon="6.0839">
        <ele>1638</ele>
        <time>2020-10-27T09:22:01+01:00</time>
      </trkpt>
      <trkpt lat="44.91012" lon="6.08306">
        <ele>1633</ele>
        <time>2020-10-27T09:22:06+01:00</time>
      </trkpt>
      <trkpt lat="44.91022" lon="6.08272">
        <ele>1640</ele>
        <time>2020-10-27T09:22:11+01:00</time>
      </trkpt>
      <trkpt lat="44.9108" lon="6.08299">
        <ele>1662</ele>
        <time>2020-10-27T09:22:16+01:00</time>
      </trkpt>
      <trkpt lat="44.91152" lon="6.08387">
        <ele>1682</ele>
        <time>2020-10-27T09:22:21+01:00</time>
      </trkpt>
      <trkpt lat="44.91226" lon="6.08396">
        <ele>1709</ele>
        <time>2020-10-27T09:22:26+01:00</time>
      </trkpt>
      <trkpt lat="44.91348" lon="6.08435">
        <ele>1739</ele>
        <time>2020-10-27T09:22:31+01:00</time>
      </trkpt>
      <trkpt lat="44.91302" lon="6.08299">
        <ele>1775</ele>
        <time>2020-10-27T09:22:36+01:00</time>
      </trkpt>
      <trkpt lat="44.9141" lon="6.08287">
        <ele>1817</ele>
        <time>2020-10-27T09:22:41+01:00</time>
      </trkpt>
      <trkpt lat="44.91534" lon="6.08274">
        <ele>1858</ele>
        <time>2020-10-27T09:22:46+01:00</time>
      </trkpt>
      <trkpt lat="44.91635" lon="6.0833">
        <ele>1883</ele>
        <time>2020-10-27T09:22:51+01:00</time>
      </trkpt>
      <trkpt lat="44.91677" lon="6.08379">
        <ele>1887</ele>
        <time>2020-10-27T09:22:56+01:00</time>
      </trkpt>
      <trkpt lat="44.91769" lon="6.0843">
        <ele>1917</ele>
        <time>2020-10-27T09:23:01+01:00</time>
      </trkpt>
      <trkpt lat="44.9179" lon="6.08475">
        <ele>1923</ele>
        <time>2020-10-27T09:23:06+01:00</time>
      </trkpt>
      <trkpt lat="44.91802" lon="6.08413">
        <ele>1938</ele>
        <time>2020-10-27T09:23:11+01:00</time>
      </trkpt>
      <trkpt lat="44.91831" lon="6.0845">
        <ele>1946</ele>
        <time>2020-10-27T09:23:16+01:00</time>
      </trkpt>
      <trkpt lat="44.91917" lon="6.08452">
        <ele>1978</ele>
        <time>2020-10-27T09:23:21+01:00</time>
      </trkpt>
      <trkpt lat="44.91901" lon="6.08353">
        <ele>2001</ele>
        <time>2020-10-27T09:23:26+01:00</time>
      </trkpt>
      <trkpt lat="44.9196" lon="6.08362">
        <ele>2018</ele>
        <time>2020-10-27T09:23:31+01:00</time>
      </trkpt>
      <trkpt lat="44.92039" lon="6.08347">
        <ele>2042</ele>
        <time>2020-10-27T09:23:36+01:00</time>
      </trkpt>
      <trkpt lat="44.92106" lon="6.08345">
        <ele>2058</ele>
        <time>2020-10-27T09:23:41+01:00</time>
      </trkpt>
      <trkpt lat="44.92141" lon="6.08334">
        <ele>2067</ele>
        <time>2020-10-27T09:23:46+01:00</time>
      </trkpt>
      <trkpt lat="44.92144" lon="6.0837">
        <ele>2061</ele>
        <time>2020-10-27T09:23:51+01:00</time>
      </trkpt>
      <trkpt lat="44.92198" lon="6.08377">
        <ele>2079</ele>
        <time>2020-10-27T09:23:56+01:00</time>
      </trkpt>
      <trkpt lat="44.92217" lon="6.08417">
        <ele>2086</ele>
        <time>2020-10-27T09:24:01+01:00</time>
      </trkpt>
      <trkpt lat="44.92323" lon="6.08473">
        <ele>2117</ele>
        <time>2020-10-27T09:24:06+01:00</time>
      </trkpt>
      <trkpt lat="44.92385" lon="6.0849">
        <ele>2130</ele>
        <time>2020-10-27T09:24:11+01:00</time>
      </trkpt>
      <trkpt lat="44.92483" lon="6.08499">
        <ele>2156</ele>
        <time>2020-10-27T09:24:16+01:00</time>
      </trkpt>
      <trkpt lat="44.92577" lon="6.08563">
        <ele>2181</ele>
        <time>2020-10-27T09:24:21+01:00</time>
      </trkpt>
      <trkpt lat="44.92703" lon="6.08621">
        <ele>2218</ele>
        <time>2020-10-27T09:24:26+01:00</time>
      </trkpt>
      <trkpt lat="44.92715" lon="6.08598">
        <ele>2226</ele>
        <time>2020-10-27T09:24:31+01:00</time>
      </trkpt>
      <trkpt lat="44.92741" lon="6.08628">
        <ele>2234</ele>
        <time>2020-10-27T09:24:36+01:00</time>
      </trkpt>
      <trkpt lat="44.92748" lon="6.08604">
        <ele>2240</ele>
        <time>2020-10-27T09:24:41+01:00</time>
      </trkpt>
      <trkpt lat="44.92771" lon="6.08636">
        <ele>2247</ele>
        <time>2020-10-27T09:24:46+01:00</time>
      </trkpt>
      <trkpt lat="44.92785" lon="6.08608">
        <ele>2257</ele>
        <time>2020-10-27T09:24:51+01:00</time>
      </trkpt>
      <trkpt lat="44.92809" lon="6.08664">
        <ele>2263</ele>
        <time>2020-10-27T09:24:56+01:00</time>
      </trkpt>
      <trkpt lat="44.92823" lon="6.08641">
        <ele>2275</ele>
        <time>2020-10-27T09:25:01+01:00</time>
      </trkpt>
      <trkpt lat="44.92864" lon="6.08673">
        <ele>2296</ele>
        <time>2020-10-27T09:25:06+01:00</time>
      </trkpt>
      <trkpt lat="44.92929" lon="6.08681">
        <ele>2337</ele>
        <time>2020-10-27T09:25:11+01:00</time>
      </trkpt>
      <trkpt lat="44.92985" lon="6.08651">
        <ele>2379</ele>
        <time>2020-10-27T09:25:16+01:00</time>
      </trkpt>
      <trkpt lat="44.9302" lon="6.08707">
        <ele>2399</ele>
        <time>2020-10-27T09:25:21+01:00</time>
      </trkpt>
      <trkpt lat="44.93232" lon="6.08793">
        <ele>2585</ele>
        <time>2020-10-27T09:25:26+01:00</time>
      </trkpt>
      <trkpt lat="44.93285" lon="6.08834">
        <ele>2606</ele>
        <time>2020-10-27T09:25:31+01:00</time>
      </trkpt>
      <trkpt lat="44.93414" lon="6.08769">
        <ele>2545</ele>
        <time>2020-10-27T09:25:36+01:00</time>
      </trkpt>
      <trkpt lat="44.93414" lon="6.08894">
        <ele>2516</ele>
        <time>2020-10-27T09:25:41+01:00</time>
      </trkpt>
      <trkpt lat="44.93531" lon="6.08922">
        <ele>2477</ele>
        <time>2020-10-27T09:25:46+01:00</time>
      </trkpt>
      <trkpt lat="44.93548" lon="6.08978">
        <ele>2460</ele>
        <time>2020-10-27T09:25:51+01:00</time>
      </trkpt>
      <trkpt lat="44.93575" lon="6.08943">
        <ele>2449</ele>
        <time>2020-10-27T09:25:56+01:00</time>
      </trkpt>
      <trkpt lat="44.93627" lon="6.08971">
        <ele>2424</ele>
        <time>2020-10-27T09:26:01+01:00</time>
      </trkpt>
      <trkpt lat="44.93709" lon="6.08973">
        <ele>2392</ele>
        <time>2020-10-27T09:26:06+01:00</time>
      </trkpt>
      <trkpt lat="44.9378" lon="6.08978">
        <ele>2372</ele>
        <time>2020-10-27T09:26:11+01:00</time>
      </trkpt>
      <trkpt lat="44.93917" lon="6.09031">
        <ele>2333</ele>
        <time>2020-10-27T09:26:16+01:00</time>
      </trkpt>
      <trkpt lat="44.93977" lon="6.0902">
        <ele>2313</ele>
        <time>2020-10-27T09:26:21+01:00</time>
      </trkpt>
      <trkpt lat="44.94011" lon="6.09035">
        <ele>2304</ele>
        <time>2020-10-27T09:26:26+01:00</time>
      </trkpt>
      <trkpt lat="44.94044" lon="6.09027">
        <ele>2296</ele>
        <time>2020-10-27T09:26:31+01:00</time>
      </trkpt>
      <trkpt lat="44.9409" lon="6.0905">
        <ele>2284</ele>
        <time>2020-10-27T09:26:36+01:00</time>
      </trkpt>
      <trkpt lat="44.94135" lon="6.09042">
        <ele>2280</ele>
        <time>2020-10-27T09:26:41+01:00</time>
      </trkpt>
      <trkpt lat="44.94216" lon="6.09096">
        <ele>2262</ele>
        <time>2020-10-27T09:26:46+01:00</time>
      </trkpt>
      <trkpt lat="44.94254" lon="6.09108">
        <ele>2251</ele>
        <time>2020-10-27T09:26:51+01:00</time>
      </trkpt>
      <trkpt lat="44.94339" lon="6.09211">
        <ele>2205</ele>
        <time>2020-10-27T09:26:56+01:00</time>
      </trkpt>
      <trkpt lat="44.94401" lon="6.09194">
        <ele>2194</ele>
        <time>2020-10-27T09:27:01+01:00</time>
      </trkpt>
      <trkpt lat="44.9443" lon="6.09216">
        <ele>2183</ele>
        <time>2020-10-27T09:27:06+01:00</time>
      </trkpt>
      <trkpt lat="44.94501" lon="6.09224">
        <ele>2167</ele>
        <time>2020-10-27T09:27:11+01:00</time>
      </trkpt>
      <trkpt lat="44.946" lon="6.09325">
        <ele>2139</ele>
        <time>2020-10-27T09:27:16+01:00</time>
      </trkpt>
      <trkpt lat="44.94653" lon="6.0934">
        <ele>2130</ele>
        <time>2020-10-27T09:27:21+01:00</time>
      </trkpt>
      <trkpt lat="44.94731" lon="6.09347">
        <ele>2120</ele>
        <time>2020-10-27T09:27:26+01:00</time>
      </trkpt>
      <trkpt lat="44.94816" lon="6.0939">
        <ele>2115</ele>
        <time>2020-10-27T09:27:31+01:00</time>
      </trkpt>
      <trkpt lat="44.94899" lon="6.09415">
        <ele>2110</ele>
        <time>2020-10-27T09:27:36+01:00</time>
      </trkpt>
      <trkpt lat="44.94943" lon="6.09452">
        <ele>2105</ele>
        <time>2020-10-27T09:27:41+01:00</time>
      </trkpt>
      <trkpt lat="44.94995" lon="6.09462">
        <ele>2104</ele>
        <time>2020-10-27T09:27:46+01:00</time>
      </trkpt>
      <trkpt lat="44.95098" lon="6.09514">
        <ele>2100</ele>
        <time>2020-10-27T09:27:51+01:00</time>
      </trkpt>
      <trkpt lat="44.95156" lon="6.09574">
        <ele>2102</ele>
        <time>2020-10-27T09:27:56+01:00</time>
      </trkpt>
      <trkpt lat="44.95217" lon="6.09634">
        <ele>2102</ele>
        <time>2020-10-27T09:28:01+01:00</time>
      </trkpt>
      <trkpt lat="44.9532" lon="6.09733">
        <ele>2116</ele>
        <time>2020-10-27T09:28:06+01:00</time>
      </trkpt>
      <trkpt lat="44.95318" lon="6.09733">
        <ele>2115</ele>
        <time>2020-10-27T09:28:11+01:00</time>
      </trkpt>
      <trkpt lat="44.95317" lon="6.09733">
        <ele>2115</ele>
        <time>2020-10-27T09:28:16+01:00</time>
      </trkpt>
    </trkseg>
  </trk>
</gpx>